Terminal Aerodrome Forecast
Issued by NWS Jacksonville, FL

Home | Current Version | Previous Version | Text Only | Print | Product List | Glossary On
Versions: 1 2 3 4 5 6 7 8 9 10 11 12 13 14 15 16 17 18
329
FTUS42 KJAX 281121
TAFJAX
TAF
KJAX 281121Z 2812/0112 00000KT 3SM BR FEW009
      TEMPO 2812/2813 1SM BR
     FM281400 17006KT P6SM BKN035
     FM281900 13010KT P6SM BKN040
     FM010400 16003KT 3SM BR SCT003 BKN010
     FM010800 18003KT 2SM BR BKN003=

USA.gov is the U.S. government's official web portal to all federal, state and local government web resources and services.